Terminal Aerodrome Forecast
Issued by NWS

Home | Current Version | Previous Version | Text Only | Print | Product List | Glossary On
Versions: 1 2 3 4 5 6 7 8 9 10 11 12 13 14 15 16 17 18 19
000
FTUS43 KMKX 242337
TAFENW
TAF
KENW 242337Z 2500/2524 21013G24KT P6SM FEW250
     FM250100 24011KT P6SM FEW080 SCT200
     FM250600 28010G19KT P6SM BKN050 BKN100
     FM251200 29010G19KT P6SM BKN040
     FM251600 31012G21KT P6SM SCT030=

USA.gov is the U.S. government's official web portal to all federal, state and local government web resources and services.